Time;durP1;ratioP1;P1;durP2;ratioP2;P2;SDS_P1;SDS_P2;PMS_P1;PMS_P2;Temp;Humidity;BMP_temperature;BMP_pressure;BME280_temperature;BME280_humidity;BME280_pressure;Samples;Min_cycle;Max_cycle;Signal;HPM_P1;HPM_P2
2022/06/02 00:00:20;;;;;;;7.68;4.65;;;16.60;99.90;;;;;;4941292;29;20044;-83
2022/06/02 00:03:11;;;;;;;9.55;5.15;;;16.60;99.90;;;;;;4960443;29;20123;-83
2022/06/02 00:05:50;;;;;;;9.10;5.75;;;16.60;99.90;;;;;;4943430;29;20043;-84
2022/06/02 00:08:25;;;;;;;8.20;5.00;;;16.50;99.90;;;;;;4945212;29;20110;-84
2022/06/02 00:10:53;;;;;;;;;;;16.60;99.90;;;;;;4943662;29;20425;-85
2022/06/02 00:13:41;;;;;;;7.82;5.05;;;16.50;99.90;;;;;;4960252;28;19918;-84
2022/06/02 00:16:14;;;;;;;7.47;4.82;;;16.50;99.90;;;;;;4945931;29;20019;-84
2022/06/02 00:18:53;;;;;;;7.50;5.00;;;16.50;99.90;;;;;;4947528;29;20023;-84
2022/06/02 00:21:21;;;;;;;7.60;4.75;;;16.40;99.90;;;;;;4950820;29;20039;-85
2022/06/02 00:23:55;;;;;;;7.45;4.47;;;16.40;99.90;;;;;;4945573;29;20440;-85
2022/06/02 00:26:29;;;;;;;7.57;4.60;;;16.30;99.90;;;;;;4946329;29;20028;-83
2022/06/02 00:29:17;;;;;;;8.23;4.47;;;16.30;99.90;;;;;;4946680;29;20027;-83
2022/06/02 00:31:51;;;;;;;8.40;4.70;;;16.20;99.90;;;;;;4945235;29;20042;-84
2022/06/02 00:34:17;;;;;;;8.55;4.80;;;16.20;99.90;;;;;;4945342;29;20106;-86
2022/06/02 00:37:05;;;;;;;12.27;4.72;;;16.20;99.90;;;;;;4946279;29;20063;-84
2022/06/02 00:39:33;;;;;;;8.77;5.03;;;16.10;99.90;;;;;;4945704;29;20047;-85
2022/06/02 00:42:07;;;;;;;7.70;5.35;;;16.10;99.90;;;;;;4946476;29;20027;-85
2022/06/02 00:44:44;;;;;;;8.48;5.15;;;16.10;99.90;;;;;;4946095;29;20467;-86
2022/06/02 00:47:33;;;;;;;10.93;5.90;;;16.10;99.90;;;;;;4946172;29;20039;-83
2022/06/02 00:50:10;;;;;;;10.73;7.13;;;16.00;99.90;;;;;;4948827;29;20054;-84
2022/06/02 00:52:54;;;;;;;9.63;6.82;;;16.00;99.90;;;;;;4952696;29;20032;-85
2022/06/02 00:58:54;;;;;;;11.48;6.22;;;15.90;99.90;;;;;;4958927;29;20036;-83
2022/06/02 01:01:26;;;;;;;12.45;6.70;;;15.90;99.90;;;;;;4947813;29;20032;-85
2022/06/02 01:03:55;;;;;;;10.48;6.80;;;15.90;99.90;;;;;;4944475;29;20511;-85
2022/06/02 01:06:23;;;;;;;8.00;5.80;;;15.80;99.90;;;;;;4945890;29;20023;-86
2022/06/02 01:08:55;;;;;;;10.05;5.82;;;15.80;99.90;;;;;;4946580;29;20058;-86
2022/06/02 01:12:00;;;;;;;10.55;5.80;;;15.80;99.90;;;;;;4947689;29;20034;-86
2022/06/02 01:14:29;;;;;;;7.88;6.10;;;15.80;99.90;;;;;;4950405;29;20011;-84
2022/06/02 01:17:08;;;;;;;9.63;6.10;;;15.80;99.90;;;;;;4958671;29;20040;-84
2022/06/02 01:20:16;;;;;;;11.35;5.65;;;15.70;99.90;;;;;;4955678;29;20064;-85
2022/06/02 01:23:19;;;;;;;8.80;6.00;;;15.70;99.90;;;;;;4955619;29;20032;-84
2022/06/02 01:26:13;;;;;;;13.57;6.18;;;15.70;99.90;;;;;;4954635;29;20032;-83
2022/06/02 01:28:42;;;;;;;8.35;6.10;;;15.70;99.90;;;;;;4953216;29;20117;-82
2022/06/02 01:31:14;;;;;;;10.65;6.65;;;15.70;99.90;;;;;;4955850;29;20035;-83
2022/06/02 01:34:15;;;;;;;11.15;6.68;;;15.70;99.90;;;;;;4947371;29;20420;-83
2022/06/02 01:36:59;;;;;;;12.18;6.55;;;15.70;99.90;;;;;;4943743;29;20044;-84
2022/06/02 01:39:31;;;;;;;14.82;6.95;;;15.70;99.90;;;;;;4943987;29;20095;-84
2022/06/02 01:42:04;;;;;;;16.13;7.07;;;15.60;99.90;;;;;;4947253;29;20163;-83
2022/06/02 01:44:40;;;;;;;11.20;6.80;;;15.60;99.90;;;;;;5087686;23;20521;-85
2022/06/02 01:47:18;;;;;;;11.35;6.72;;;15.50;99.90;;;;;;4986664;28;20034;-88
2022/06/02 01:50:13;;;;;;;8.60;6.28;;;15.50;99.90;;;;;;4986118;28;20027;-87
2022/06/02 01:52:57;;;;;;;8.02;6.88;;;15.50;99.90;;;;;;4987998;28;20109;-87
2022/06/02 01:55:50;;;;;;;9.98;6.53;;;15.50;99.90;;;;;;4988222;28;20022;-86
2022/06/02 01:58:31;;;;;;;11.77;6.88;;;15.40;99.90;;;;;;4986880;28;20031;-86
2022/06/02 02:01:07;;;;;;;8.95;7.22;;;15.50;99.90;;;;;;4991417;28;20031;-88
2022/06/02 02:04:01;;;;;;;10.07;6.32;;;15.40;99.90;;;;;;4997472;28;20046;-86
2022/06/02 02:06:39;;;;;;;10.82;7.07;;;15.40;99.90;;;;;;4999153;28;20027;-86
2022/06/02 02:09:39;;;;;;;10.07;7.30;;;15.40;99.90;;;;;;4999750;28;20031;-85
2022/06/02 02:12:21;;;;;;;9.38;7.32;;;15.30;99.90;;;;;;4980919;28;20047;-86
2022/06/02 02:15:16;;;;;;;14.23;6.95;;;15.30;99.90;;;;;;4997356;28;20083;-87
2022/06/02 02:18:12;;;;;;;12.07;7.43;;;15.30;99.90;;;;;;4997785;28;20057;-86
2022/06/02 02:21:00;;;;;;;;;;;15.20;99.90;;;;;;4983589;28;20306;-87
2022/06/02 02:23:44;;;;;;;16.27;7.63;;;15.20;99.90;;;;;;4997748;28;19898;-86
2022/06/02 02:26:15;;;;;;;10.90;7.78;;;15.20;99.90;;;;;;4997955;28;20018;-86
2022/06/02 02:29:08;;;;;;;9.85;7.53;;;15.20;99.90;;;;;;4998875;28;20046;-86
2022/06/02 02:31:52;;;;;;;11.20;6.70;;;15.20;99.90;;;;;;4998993;28;20019;-85
2022/06/02 02:34:31;;;;;;;10.63;6.77;;;15.10;99.90;;;;;;4987024;28;20094;-87
2022/06/02 02:37:09;;;;;;;9.35;6.45;;;15.10;99.90;;;;;;4999212;28;20285;-86
2022/06/02 02:40:02;;;;;;;9.55;6.18;;;15.10;99.90;;;;;;4999640;28;20023;-85
2022/06/02 02:42:47;;;;;;;10.32;6.20;;;15.10;99.90;;;;;;4990834;28;20035;-87
2022/06/02 02:45:33;;;;;;;10.10;5.85;;;15.10;99.90;;;;;;4998886;28;20061;-87
2022/06/02 02:48:42;;;;;;;8.35;6.40;;;15.10;99.90;;;;;;4999617;28;20034;-86
2022/06/02 02:51:36;;;;;;;10.45;8.20;;;15.10;99.90;;;;;;4998960;28;20090;-86
2022/06/02 02:54:08;;;;;;;16.63;7.38;;;15.10;99.90;;;;;;4998981;28;20023;-87
2022/06/02 02:56:55;;;;;;;14.93;8.40;;;15.10;99.90;;;;;;4998590;28;20023;-86
2022/06/02 02:59:36;;;;;;;12.60;7.97;;;15.10;99.90;;;;;;4999337;28;20050;-85
2022/06/02 03:02:15;;;;;;;8.25;7.22;;;15.10;99.90;;;;;;4999594;28;20023;-87
2022/06/02 03:04:58;;;;;;;11.32;7.85;;;15.00;99.90;;;;;;4998972;28;20049;-86
2022/06/02 03:07:24;;;;;;;10.57;7.68;;;15.10;99.90;;;;;;4999823;28;20090;-87
2022/06/02 03:09:59;;;;;;;13.32;8.40;;;15.10;99.90;;;;;;4982917;28;20025;-85
2022/06/02 03:12:56;;;;;;;9.23;7.70;;;15.10;99.90;;;;;;4998764;28;20047;-86
2022/06/02 03:15:36;;;;;;;14.32;8.20;;;15.20;99.90;;;;;;4999250;28;20050;-86
2022/06/02 03:18:28;;;;;;;14.40;8.63;;;15.10;99.90;;;;;;4999723;28;20030;-83
2022/06/02 03:20:56;;;;;;;13.95;7.63;;;15.10;99.90;;;;;;4999610;28;20019;-86
2022/06/02 03:23:46;;;;;;;11.30;8.18;;;15.20;99.90;;;;;;4999013;28;20011;-87
2022/06/02 03:26:43;;;;;;;12.52;8.45;;;15.20;99.90;;;;;;4999013;28;20023;-84
2022/06/02 03:29:24;;;;;;;13.00;8.02;;;15.30;99.90;;;;;;4998886;28;20069;-85
2022/06/02 03:31:53;;;;;;;13.15;7.68;;;15.30;99.90;;;;;;4999371;28;20111;-87
2022/06/02 03:34:31;;;;;;;13.20;8.13;;;15.30;99.90;;;;;;4999208;28;20062;-87
2022/06/02 03:37:06;;;;;;;11.73;7.57;;;15.40;99.90;;;;;;4997054;28;20031;-84
2022/06/02 03:39:37;;;;;;;;;;;15.50;99.90;;;;;;4998346;28;20023;-86
2022/06/02 03:42:20;;;;;;;12.05;7.63;;;15.50;99.90;;;;;;4998677;28;19902;-85
2022/06/02 03:45:14;;;;;;;12.73;7.57;;;15.60;99.90;;;;;;4995428;28;20035;-85
2022/06/02 03:47:49;;;;;;;8.40;6.10;;;15.70;99.90;;;;;;4996629;28;20035;-86
2022/06/02 03:50:39;;;;;;;11.32;6.22;;;15.70;99.90;;;;;;4996369;28;20057;-87
2022/06/02 03:53:37;;;;;;;9.55;5.65;;;15.80;99.90;;;;;;4998133;28;20019;-84
2022/06/02 03:56:32;;;;;;;10.60;5.03;;;15.90;99.90;;;;;;4970184;28;20150;-87
2022/06/02 03:59:17;;;;;;;11.55;6.07;;;16.00;99.90;;;;;;4994570;28;20118;-83
2022/06/02 04:01:59;;;;;;;8.53;5.73;;;16.10;99.90;;;;;;4993491;28;20030;-86
2022/06/02 04:04:33;;;;;;;8.93;5.10;;;16.20;99.90;;;;;;4974488;28;20487;-86
2022/06/02 04:07:08;;;;;;;8.80;4.65;;;16.20;99.90;;;;;;4988853;28;20150;-86
2022/06/02 04:10:00;;;;;;;7.32;4.57;;;16.40;99.90;;;;;;4995813;28;20045;-83
2022/06/02 04:15:58;;;;;;;8.57;4.55;;;16.60;99.90;;;;;;4995266;28;20086;-86
2022/06/02 04:18:33;;;;;;;9.73;5.10;;;16.70;99.90;;;;;;4997216;28;20031;-86
2022/06/02 04:21:27;;;;;;;9.65;5.05;;;16.80;99.90;;;;;;5000831;28;20050;-85
2022/06/02 04:24:01;;;;;;;7.57;4.57;;;16.80;99.90;;;;;;5001650;28;20058;-84
2022/06/02 04:26:47;;;;;;;5.82;4.13;;;17.00;99.90;;;;;;5000461;28;20027;-83
2022/06/02 04:29:34;;;;;;;9.68;4.60;;;17.00;99.90;;;;;;4998985;28;20090;-84
2022/06/02 04:32:42;;;;;;;7.40;4.93;;;17.10;99.90;;;;;;4998559;28;20066;-85
2022/06/02 04:35:29;;;;;;;6.30;4.20;;;17.20;99.90;;;;;;4996281;28;20070;-86
2022/06/02 04:38:17;;;;;;;6.05;3.88;;;17.30;99.90;;;;;;4996731;28;20062;-85
2022/06/02 04:40:56;;;;;;;6.88;4.50;;;17.30;99.90;;;;;;4997813;28;20526;-84
2022/06/02 04:43:32;;;;;;;5.88;4.18;;;17.40;99.90;;;;;;4992905;28;20041;-85
2022/06/02 04:46:10;;;;;;;9.45;5.85;;;17.70;99.90;;;;;;4992085;28;20038;-86
2022/06/02 04:49:04;;;;;;;8.80;3.92;;;18.00;99.90;;;;;;4992026;28;20039;-85
2022/06/02 04:51:48;;;;;;;8.13;4.18;;;18.20;99.90;;;;;;4990672;28;20445;-88
2022/06/02 04:54:16;;;;;;;6.07;4.15;;;18.30;99.90;;;;;;4991895;28;20103;-86
2022/06/02 04:56:58;;;;;;;5.80;3.80;;;18.30;99.90;;;;;;4987645;28;20015;-87
2022/06/02 04:59:46;;;;;;;6.50;3.92;;;18.30;99.90;;;;;;4988701;28;20011;-86
2022/06/02 05:02:41;;;;;;;4.75;4.00;;;18.30;99.90;;;;;;4992834;28;20035;-86
2022/06/02 05:05:23;;;;;;;8.77;4.32;;;18.60;99.90;;;;;;4995705;28;20039;-88
2022/06/02 05:08:24;;;;;;;8.32;4.20;;;18.90;99.90;;;;;;4995609;28;20043;-86
2022/06/02 05:10:57;;;;;;;4.72;3.67;;;18.90;99.90;;;;;;4995473;28;20121;-86
2022/06/02 05:14:00;;;;;;;5.35;3.53;;;19.00;99.90;;;;;;4975738;29;20054;-85
2022/06/02 05:16:32;;;;;;;6.50;3.80;;;18.90;99.90;;;;;;4994464;28;20042;-87
2022/06/02 05:19:33;;;;;;;11.32;4.30;;;18.80;99.90;;;;;;4999495;28;20037;-85
2022/06/02 05:22:17;;;;;;;7.38;3.65;;;18.80;99.90;;;;;;4992999;28;20046;-87
2022/06/02 05:25:08;;;;;;;6.97;4.00;;;18.80;99.90;;;;;;4991665;28;20037;-87
2022/06/02 05:28:01;;;;;;;7.50;3.97;;;18.80;99.90;;;;;;5002620;28;20028;-88
2022/06/02 05:30:30;;;;;;;5.15;3.42;;;18.90;99.90;;;;;;5004103;28;20046;-88
2022/06/02 05:33:14;;;;;;;3.67;2.83;;;19.00;99.90;;;;;;4993539;28;20022;-89
2022/06/02 05:35:56;;;;;;;4.90;3.03;;;19.30;99.90;;;;;;5010002;28;20390;-87
2022/06/02 05:38:58;;;;;;;5.53;3.28;;;19.30;99.90;;;;;;4978302;28;20027;-88
2022/06/02 05:41:54;;;;;;;5.35;2.65;;;19.40;99.90;;;;;;4978949;28;20090;-89
2022/06/02 05:44:47;;;;;;;7.10;2.67;;;19.50;99.90;;;;;;4990929;28;20053;-86
2022/06/02 05:47:38;;;;;;;5.60;2.40;;;19.80;99.90;;;;;;4991089;28;20034;-86
2022/06/02 05:50:29;;;;;;;10.45;3.78;;;19.70;99.90;;;;;;4991141;28;20371;-87
2022/06/02 05:53:03;;;;;;;6.38;3.15;;;19.90;99.90;;;;;;4990746;28;20130;-86
2022/06/02 05:55:49;;;;;;;;;;;20.20;99.90;;;;;;4991388;28;20035;-87
2022/06/02 05:58:45;;;;;;;5.05;2.42;;;20.30;99.90;;;;;;4988604;28;19910;-87
2022/06/02 06:01:28;;;;;;;7.90;2.30;;;20.30;99.90;;;;;;5001177;28;20038;-86
2022/06/02 06:04:08;;;;;;;4.32;1.90;;;20.30;99.90;;;;;;4991872;28;20065;-87
2022/06/02 06:07:08;;;;;;;5.50;2.10;;;20.20;99.90;;;;;;4988851;28;20027;-87
2022/06/02 06:09:53;;;;;;;5.13;2.10;;;20.30;99.90;;;;;;4993450;28;20047;-84
2022/06/02 06:12:20;;;;;;;4.45;2.15;;;20.20;99.90;;;;;;4993844;28;20062;-85
2022/06/02 06:15:33;;;;;;;6.00;1.92;;;20.10;99.90;;;;;;4977920;28;20022;-89
2022/06/02 06:18:19;;;;;;;5.85;2.50;;;20.00;99.90;;;;;;4989713;28;20073;-87
2022/06/02 06:20:53;;;;;;;7.53;2.10;;;20.10;99.90;;;;;;4995329;28;20050;-87
2022/06/02 06:23:34;;;;;;;6.32;2.58;;;20.20;99.90;;;;;;4997218;28;21096;-87
2022/06/02 06:26:21;;;;;;;9.65;2.30;;;20.20;99.90;;;;;;4996310;28;20027;-88
2022/06/02 06:29:25;;;;;;;6.80;2.45;;;20.30;99.90;;;;;;4995045;28;20031;-88
2022/06/02 06:31:55;;;;;;;12.40;2.50;;;20.20;99.90;;;;;;4982639;28;20050;-88
2022/06/02 06:34:40;;;;;;;7.90;2.30;;;20.30;99.90;;;;;;4993159;28;20051;-87
2022/06/02 06:37:28;;;;;;;4.28;1.90;;;20.40;99.90;;;;;;4988081;28;20124;-89
2022/06/02 06:40:10;;;;;;;5.22;2.35;;;20.60;99.90;;;;;;4989334;28;20074;-89
2022/06/02 06:43:03;;;;;;;3.88;2.15;;;20.70;99.90;;;;;;4983109;28;20660;-87
2022/06/02 06:45:43;;;;;;;9.80;3.40;;;20.80;99.90;;;;;;4978459;28;20071;-88
2022/06/02 06:48:22;;;;;;;4.57;1.88;;;20.80;99.90;;;;;;4997106;28;20090;-88
2022/06/02 06:50:56;;;;;;;5.65;2.05;;;21.00;99.90;;;;;;4995198;28;20054;-88
2022/06/02 06:53:45;;;;;;;4.97;2.10;;;21.20;99.90;;;;;;4996365;28;20050;-86
2022/06/02 06:56:36;;;;;;;10.40;2.30;;;21.30;99.90;;;;;;4993414;28;20043;-88
2022/06/02 06:59:03;;;;;;;4.68;2.03;;;21.40;99.90;;;;;;5011090;28;20027;-86
2022/06/02 07:02:01;;;;;;;8.70;1.80;;;21.40;99.90;;;;;;5012229;23;20045;-87
2022/06/02 07:04:45;;;;;;;4.88;2.15;;;21.30;99.90;;;;;;4997782;28;20033;-86
2022/06/02 07:07:19;;;;;;;3.78;1.92;;;21.40;99.90;;;;;;4996835;28;20046;-86
2022/06/02 07:09:59;;;;;;;7.30;2.58;;;21.40;99.90;;;;;;4997139;28;20023;-87
2022/06/02 07:12:52;;;;;;;4.75;2.00;;;21.60;99.90;;;;;;4997723;28;20035;-88
2022/06/02 07:15:39;;;;;;;3.72;2.00;;;21.80;99.90;;;;;;4996155;28;20019;-86
2022/06/02 07:18:15;;;;;;;3.20;1.98;;;21.90;99.90;;;;;;4996780;28;20030;-87
2022/06/02 07:20:55;;;;;;;3.03;2.40;;;22.00;99.90;;;;;;4995309;28;20030;-87
2022/06/02 07:23:32;;;;;;;4.63;2.22;;;22.00;99.90;;;;;;4993236;28;20027;-88
2022/06/02 07:26:35;;;;;;;4.20;1.88;;;22.10;99.90;;;;;;4976424;28;20031;-89
2022/06/02 07:32:02;;;;;;;8.90;3.03;;;22.00;99.90;;;;;;4967872;28;20055;-87
2022/06/02 07:34:49;;;;;;;5.30;2.20;;;21.90;99.90;;;;;;4969623;28;20039;-87
2022/06/02 07:37:33;;;;;;;6.53;2.28;;;21.70;99.90;;;;;;4967115;28;20031;-87
2022/06/02 07:40:25;;;;;;;4.90;2.20;;;21.60;99.90;;;;;;4976883;28;20031;-86
2022/06/02 07:43:27;;;;;;;4.50;2.20;;;21.40;99.90;;;;;;4978979;28;20042;-85
2022/06/02 07:46:14;;;;;;;4.80;1.83;;;21.60;99.90;;;;;;4997378;23;20142;-82
2022/06/02 07:49:01;;;;;;;5.65;2.28;;;21.50;99.90;;;;;;4974278;28;20023;-81
2022/06/02 07:51:48;;;;;;;5.78;2.17;;;21.40;99.90;;;;;;4979858;28;20042;-84
2022/06/02 07:54:46;;;;;;;3.97;2.10;;;21.40;99.90;;;;;;4983919;28;20036;-84
2022/06/02 07:57:19;;;;;;;5.50;2.33;;;21.40;99.90;;;;;;4942522;29;20031;-83
2022/06/02 07:59:57;;;;;;;3.47;2.30;;;21.40;99.90;;;;;;4945927;29;20110;-83
2022/06/02 08:03:02;;;;;;;5.10;2.45;;;21.50;99.90;;;;;;4949278;29;20024;-83
2022/06/02 08:05:51;;;;;;;3.80;2.20;;;21.70;99.90;;;;;;4941760;29;20042;-83
2022/06/02 08:08:37;;;;;;;3.00;2.00;;;21.90;99.90;;;;;;4952346;29;20081;-83
2022/06/02 08:11:36;;;;;;;4.53;2.38;;;22.00;99.90;;;;;;4942427;29;20024;-84
2022/06/02 08:14:13;;;;;;;2.78;2.10;;;22.10;99.90;;;;;;4955863;29;20125;-83
2022/06/02 08:16:48;;;;;;;6.20;2.38;;;21.90;99.90;;;;;;4950904;28;20059;-82
2022/06/02 08:19:17;;;;;;;;;;;21.80;99.90;;;;;;4969818;29;20145;-83
2022/06/02 08:21:53;;;;;;;3.90;2.50;;;21.70;99.90;;;;;;4964380;28;19907;-87
2022/06/02 08:24:49;;;;;;;7.05;2.22;;;21.80;99.90;;;;;;4952907;28;20099;-84
2022/06/02 08:27:33;;;;;;;6.40;2.10;;;21.90;99.90;;;;;;4956754;29;20023;-85
2022/06/02 08:30:26;;;;;;;7.10;2.23;;;22.10;99.90;;;;;;4949742;29;20110;-85
2022/06/02 08:33:10;;;;;;;7.90;2.38;;;22.20;99.90;;;;;;4951593;29;20042;-84
2022/06/02 08:35:45;;;;;;;3.70;2.25;;;22.30;99.90;;;;;;4963184;28;20117;-83
2022/06/02 08:38:46;;;;;;;7.70;2.10;;;22.20;99.90;;;;;;4944851;29;20087;-84
2022/06/02 08:41:34;;;;;;;5.88;1.70;;;22.10;99.90;;;;;;4953180;29;20035;-84
2022/06/02 08:44:02;;;;;;;5.18;2.55;;;22.10;99.90;;;;;;4944746;29;20027;-83
2022/06/02 08:46:36;;;;;;;4.55;2.50;;;22.10;99.90;;;;;;4973977;28;20036;-86
2022/06/02 08:49:32;;;;;;;10.70;2.45;;;22.20;99.90;;;;;;4982270;28;20086;-83
2022/06/02 08:52:35;;;;;;;7.28;2.35;;;22.30;99.90;;;;;;4965508;29;20054;-83
2022/06/02 08:55:32;;;;;;;2.60;1.98;;;22.20;99.90;;;;;;4960705;28;20075;-83
2022/06/02 08:58:06;;;;;;;5.82;2.03;;;22.30;99.90;;;;;;4963767;28;20023;-82
2022/06/02 09:00:44;;;;;;;9.05;2.25;;;22.40;99.90;;;;;;4992474;28;20055;-82
2022/06/02 09:03:48;;;;;;;6.82;2.00;;;22.50;99.90;;;;;;4994443;28;20054;-80
2022/06/02 09:06:52;;;;;;;3.63;1.95;;;22.60;99.90;;;;;;4945250;29;20040;-82
2022/06/02 09:09:56;;;;;;;4.22;1.80;;;22.70;99.90;;;;;;4918947;29;20126;-83
2022/06/02 09:12:46;;;;;;;5.30;2.10;;;22.70;99.90;;;;;;4943542;29;20028;-86
2022/06/02 09:15:50;;;;;;;5.30;1.52;;;22.90;99.90;;;;;;4947541;29;20023;-85
2022/06/02 09:18:17;;;;;;;12.68;2.45;;;22.90;99.60;;;;;;4968500;28;20051;-86
2022/06/02 09:20:48;;;;;;;4.60;1.92;;;22.90;99.80;;;;;;4939688;29;20448;-86
2022/06/02 09:23:23;;;;;;;6.18;2.30;;;22.80;99.90;;;;;;4952724;29;20487;-85
2022/06/02 09:26:07;;;;;;;4.53;1.88;;;22.90;99.90;;;;;;4958136;29;20035;-84
2022/06/02 09:28:39;;;;;;;2.80;2.00;;;23.00;99.90;;;;;;4946097;29;20031;-85
2022/06/02 09:31:13;;;;;;;5.18;1.92;;;23.00;99.90;;;;;;4945936;29;20310;-85
2022/06/02 09:34:13;;;;;;;6.20;2.05;;;23.00;99.90;;;;;;4939941;29;20032;-85
2022/06/02 09:37:10;;;;;;;4.13;1.92;;;23.00;99.90;;;;;;4948530;29;20055;-85
2022/06/02 09:39:47;;;;;;;5.95;2.03;;;23.20;99.90;;;;;;4938789;29;20028;-84
2022/06/02 09:42:52;;;;;;;4.82;1.90;;;23.40;99.90;;;;;;4959737;29;20032;-83
2022/06/02 09:45:52;;;;;;;4.88;1.70;;;24.00;98.70;;;;;;4933098;28;20522;-85
2022/06/02 09:48:43;;;;;;;4.95;1.77;;;24.30;98.70;;;;;;4961913;29;20058;-85
2022/06/02 09:51:32;;;;;;;3.78;1.90;;;25.20;97.70;;;;;;4958493;28;20341;-88
2022/06/02 09:54:18;;;;;;;4.00;1.80;;;26.40;96.90;;;;;;4945889;29;20027;-85
2022/06/02 09:57:55;;;;;;;3.95;1.70;;;27.00;96.10;;;;;;4945289;29;20036;-86
2022/06/02 10:00:02;;;;;;;2.75;1.95;;;27.80;94.90;;;;;;4952582;29;20119;-83
2022/06/02 10:02:42;;;;;;;4.40;1.60;;;28.70;93.10;;;;;;4959837;28;20042;-84
2022/06/02 10:05:30;;;;;;;3.83;2.50;;;29.40;91.90;;;;;;4947996;29;20428;-85
2022/06/02 10:08:12;;;;;;;2.95;1.83;;;29.90;91.00;;;;;;4943450;29;20046;-83
2022/06/02 10:11:08;;;;;;;4.68;2.05;;;30.70;89.50;;;;;;4944611;29;20123;-85
2022/06/02 10:14:02;;;;;;;6.70;1.58;;;31.00;86.40;;;;;;4957542;28;20032;-84
2022/06/02 10:17:09;;;;;;;1.50;1.27;;;31.80;84.20;;;;;;4944036;29;20071;-86
2022/06/02 10:20:18;;;;;;;2.55;1.50;;;33.10;79.40;;;;;;4975959;28;20028;-82
2022/06/02 10:23:18;;;;;;;2.10;1.42;;;33.50;76.10;;;;;;4949434;29;20142;-84
2022/06/02 10:25:50;;;;;;;2.13;1.45;;;33.90;75.10;;;;;;4932621;29;20063;-84
2022/06/02 10:28:49;;;;;;;5.68;2.20;;;34.20;73.50;;;;;;4957578;28;20035;-84
2022/06/02 10:31:34;;;;;;;3.50;2.08;;;34.90;71.30;;;;;;4959722;28;20047;-84
2022/06/02 10:34:09;;;;;;;10.20;5.95;;;36.00;69.70;;;;;;4961671;29;20031;-84
2022/06/02 10:36:52;;;;;;;4.63;2.50;;;37.10;66.20;;;;;;4962584;28;20404;-83
2022/06/02 10:39:36;;;;;;;2.85;1.67;;;37.20;64.00;;;;;;4954044;29;20031;-84
2022/06/02 10:42:13;;;;;;;2.70;1.60;;;37.50;62.70;;;;;;4943522;29;20027;-85
2022/06/02 10:44:48;;;;;;;3.13;1.60;;;37.90;62.10;;;;;;4941086;29;20082;-84
2022/06/02 10:47:16;;;;;;;2.20;1.70;;;38.60;60.60;;;;;;4944241;29;20039;-85
2022/06/02 10:49:45;;;;;;;3.97;1.33;;;38.80;59.60;;;;;;4955561;29;20043;-86
2022/06/02 10:52:30;;;;;;;2.78;1.60;;;38.30;59.50;;;;;;4952011;29;20035;-86
2022/06/02 10:55:11;;;;;;;2.05;1.35;;;38.10;59.10;;;;;;4961803;28;20071;-86
2022/06/02 10:57:40;;;;;;;3.45;1.70;;;38.50;57.60;;;;;;4966995;28;20508;-87
2022/06/02 11:00:14;;;;;;;4.00;1.60;;;39.60;57.30;;;;;;4943694;29;20027;-87
2022/06/02 11:02:58;;;;;;;3.63;1.63;;;40.30;56.40;;;;;;4961214;29;20031;-86
2022/06/02 11:06:16;;;;;;;4.15;1.50;;;41.00;55.20;;;;;;4960030;28;20051;-87
2022/06/02 11:09:07;;;;;;;8.32;1.60;;;40.60;54.70;;;;;;4957969;29;20034;-88
2022/06/02 11:12:12;;;;;;;8.10;1.40;;;40.70;54.60;;;;;;4954951;28;20035;-86
2022/06/02 11:15:09;;;;;;;2.97;1.63;;;41.00;53.70;;;;;;4969566;28;20096;-84
2022/06/02 11:17:49;;;;;;;2.65;1.33;;;41.10;51.60;;;;;;4962536;28;20055;-86
2022/06/02 11:20:40;;;;;;;3.50;1.42;;;40.90;51.70;;;;;;4944766;29;20028;-86
2022/06/02 11:23:11;;;;;;;2.85;1.58;;;41.40;51.10;;;;;;4951012;29;20039;-84
2022/06/02 11:26:05;;;;;;;3.88;1.48;;;41.00;50.90;;;;;;4954840;28;20202;-86
2022/06/02 11:28:58;;;;;;;5.78;1.48;;;41.20;51.00;;;;;;4944566;29;20452;-85
2022/06/02 11:32:12;;;;;;;2.38;1.52;;;41.20;50.10;;;;;;4950493;29;20062;-84
2022/06/02 11:35:02;;;;;;;3.00;1.38;;;41.40;49.80;;;;;;4942468;29;20079;-84
2022/06/02 11:38:01;;;;;;;3.13;1.50;;;41.50;49.50;;;;;;4941532;29;20047;-85
2022/06/02 11:40:41;;;;;;;1.38;1.25;;;40.30;50.20;;;;;;4939787;29;20134;-86
2022/06/02 11:43:26;;;;;;;2.42;1.45;;;39.50;50.10;;;;;;4942161;29;20059;-85
2022/06/02 11:46:10;;;;;;;2.85;1.20;;;38.50;50.80;;;;;;4943517;29;20067;-85
2022/06/02 11:49:04;;;;;;;2.75;1.63;;;37.00;51.70;;;;;;4941883;29;20019;-85
2022/06/02 11:51:59;;;;;;;8.25;1.60;;;35.90;52.50;;;;;;4955619;29;20047;-88
2022/06/02 11:54:59;;;;;;;1.75;1.38;;;36.90;51.90;;;;;;4954306;29;20031;-85
2022/06/02 11:57:55;;;;;;;4.53;1.50;;;38.20;49.80;;;;;;4932763;29;20044;-84
2022/06/02 12:00:58;;;;;;;1.42;1.20;;;39.90;49.40;;;;;;4941934;29;20067;-83
2022/06/02 12:03:48;;;;;;;2.47;1.52;;;40.30;48.20;;;;;;4970377;28;20107;-84
2022/06/02 12:06:40;;;;;;;4.22;1.50;;;40.40;47.90;;;;;;4954008;29;20088;-82
2022/06/02 12:09:16;;;;;;;4.15;1.42;;;40.50;48.60;;;;;;4951015;29;20035;-84
2022/06/02 12:11:49;;;;;;;2.63;1.40;;;41.60;47.80;;;;;;4962007;29;20086;-85
2022/06/02 12:14:27;;;;;;;2.95;1.48;;;41.80;46.60;;;;;;4949307;29;20038;-86
2022/06/02 12:17:27;;;;;;;2.30;1.38;;;41.20;46.40;;;;;;4947952;28;20110;-85
2022/06/02 12:20:19;;;;;;;1.42;1.25;;;41.10;46.90;;;;;;4950146;28;20027;-83
2022/06/02 12:22:50;;;;;;;2.25;1.48;;;42.40;45.90;;;;;;4976442;28;20038;-81
2022/06/02 12:25:43;;;;;;;2.55;1.30;;;41.70;46.60;;;;;;4971968;28;20027;-83
2022/06/02 12:28:24;;;;;;;2.22;1.45;;;40.90;46.90;;;;;;4960495;29;20036;-82
2022/06/02 12:31:24;;;;;;;3.10;1.30;;;41.20;45.90;;;;;;4974934;28;20032;-83
2022/06/02 12:34:20;;;;;;;4.32;1.48;;;41.80;44.50;;;;;;4969383;28;20059;-82
2022/06/02 12:37:24;;;;;;;1.20;1.10;;;42.70;43.80;;;;;;4955247;29;20096;-84
2022/06/02 12:40:08;;;;;;;6.32;1.42;;;43.30;43.80;;;;;;4973810;28;20055;-84
2022/06/02 12:42:52;;;;;;;5.53;1.80;;;43.60;44.20;;;;;;4972418;29;20099;-83
2022/06/02 12:45:45;;;;;;;2.35;1.35;;;43.80;44.20;;;;;;4969356;28;20031;-84
2022/06/02 12:48:11;;;;;;;2.13;1.50;;;42.60;44.50;;;;;;4964058;29;20027;-86
2022/06/02 12:51:02;;;;;;;3.28;2.03;;;41.10;45.80;;;;;;4963726;28;20070;-86
2022/06/02 12:53:42;;;;;;;1.92;1.80;;;39.60;47.20;;;;;;4953515;29;20095;-85
2022/06/02 12:56:20;;;;;;;3.20;1.95;;;38.10;48.40;;;;;;4969872;28;20431;-86
2022/06/02 12:58:46;;;;;;;3.08;1.70;;;36.70;49.60;;;;;;4967358;29;20027;-84
2022/06/02 13:01:57;;;;;;;2.65;1.30;;;36.80;49.90;;;;;;4986777;28;20414;-86
2022/06/02 13:05:00;;;;;;;3.70;2.03;;;37.50;49.70;;;;;;4970612;28;20035;-84
2022/06/02 13:07:56;;;;;;;3.35;1.90;;;38.30;48.70;;;;;;4970451;28;20095;-86
2022/06/02 13:10:47;;;;;;;4.80;1.80;;;38.30;48.30;;;;;;4965679;28;20027;-85
2022/06/02 13:13:28;;;;;;;3.85;2.55;;;37.70;48.50;;;;;;4963265;29;20107;-85
2022/06/02 13:16:13;;;;;;;3.33;1.88;;;37.10;48.90;;;;;;4976765;28;20053;-82
2022/06/02 13:19:26;;;;;;;3.22;1.45;;;35.90;50.00;;;;;;4979087;28;20019;-83
2022/06/02 13:21:59;;;;;;;2.85;1.60;;;35.00;50.80;;;;;;4964573;28;20035;-83
2022/06/02 13:24:50;;;;;;;5.55;2.90;;;34.80;50.90;;;;;;4968396;29;20039;-82
2022/06/02 13:27:38;;;;;;;2.45;1.60;;;35.20;50.60;;;;;;4965925;28;20016;-84
2022/06/02 13:30:35;;;;;;;4.93;1.63;;;35.90;50.50;;;;;;4968880;28;20519;-84
2022/06/02 13:33:26;;;;;;;2.83;1.58;;;37.00;49.80;;;;;;4951478;28;20054;-83
2022/06/02 13:36:18;;;;;;;2.60;1.65;;;38.30;49.30;;;;;;4966310;28;20028;-84
2022/06/02 13:39:35;;;;;;;3.08;2.10;;;38.80;48.20;;;;;;4961712;28;20028;-84
2022/06/02 13:42:39;;;;;;;7.07;3.65;;;38.00;48.30;;;;;;4967008;29;20032;-85
2022/06/02 13:48:21;;;;;;;3.45;2.10;;;34.40;51.50;;;;;;3246846;26;20078;-88
2022/06/02 13:52:04;;;;;;;3.78;1.88;;;34.00;51.90;;;;;;4976465;28;20059;-90
2022/06/02 13:59:10;;;;;;;2.70;1.55;;;32.40;53.30;;;;;;4884021;29;20076;-90
2022/06/02 14:01:57;;;;;;;3.45;2.20;;;31.60;54.10;;;;;;4875864;29;20043;-89
2022/06/02 14:09:17;;;;;;;3.17;1.73;;;30.90;55.20;;;;;;4957772;29;20048;-90
2022/06/02 14:12:24;;;;;;;;;;;;;;;;;;;;;
2022/06/02 14:15:53;;;;;;;3.97;2.05;;;31.40;54.50;;;;;;4956105;29;20095;-87
2022/06/02 14:19:20;;;;;;;4.87;2.17;;;32.10;53.70;;;;;;4938966;29;20118;-88
2022/06/02 14:33:43;;;;;;;6.13;2.40;;;30.20;55.40;;;;;;4955106;29;20135;-88
2022/06/02 15:14:27;;;;;;;;;;;;;;;;;;;;;
2022/06/02 15:25:16;;;;;;;4.60;2.15;;;27.20;60.70;;;;;;4955615;28;20046;-91
2022/06/02 15:28:19;;;;;;;4.60;2.50;;;26.90;60.70;;;;;;4926914;28;20028;-89
2022/06/02 15:31:08;;;;;;;4.53;1.95;;;26.80;62.00;;;;;;5008488;23;20058;-90
2022/06/02 16:19:43;;;;;;;4.72;2.63;;;26.20;63.50;;;;;;5519101;23;20031;-91
2022/06/02 16:22:28;;;;;;;3.30;1.90;;;26.00;64.00;;;;;;4965181;28;20071;-91
2022/06/02 16:25:12;;;;;;;8.13;2.90;;;25.70;64.90;;;;;;4948760;28;20090;-92
2022/06/02 16:31:07;;;;;;;;;;;25.60;65.20;;;;;;5488121;23;20035;-92
2022/06/02 16:36:18;;;;;;;3.70;2.30;;;25.30;65.70;;;;;;5077623;23;20031;-90